Heath, Texas
Current Conditions -  °F | °C
As of 11:35 AM on Wednesday 26 Nov 2014 (Local Time) from KF46 Reporting Station
Clear Clear  
Wind Chill: 58°   Ceiling: Unl
Heat Index: 58°   Visibility: 10mi
Dew Point: 31°   Wind: 8mph
Humidity: 35%   Direction: 330°NNW
Pressure: 30.15"   Gusts: 17mph
Location:  32.8584°N, 96.4261°W
Report Text: KF46 261735Z AUTO 33007G15KT 10SM CLR 15/M01 A3015 RMK AO2 T01451007
Loading
Personal Weather Stations






























Interactive Weather Map New forecast layout! Learn more

10-Day Weather Forecast

Advertisements
Track Severe Weather on mobile